sensor_id;sensor_type;location;lat;lon;timestamp;pressure;altitude;pressure_sealevel;temperature;humidity
5455;BME280;2750;49.050;9.250;2022-12-31T00:04:24;98489.38;;;15.49;95.21
5455;BME280;2750;49.050;9.250;2022-12-31T00:09:26;98482.38;;;15.13;97.57
5455;BME280;2750;49.050;9.250;2022-12-31T00:14:29;98498.75;;;15.27;97.25
5455;BME280;2750;49.050;9.250;2022-12-31T00:19:30;98489.00;;;15.42;96.45
5455;BME280;2750;49.050;9.250;2022-12-31T00:24:31;98494.22;;;15.55;96.23
5455;BME280;2750;49.050;9.250;2022-12-31T00:29:36;98504.47;;;15.58;94.92
5455;BME280;2750;49.050;9.250;2022-12-31T00:34:38;98512.06;;;15.73;95.23
5455;BME280;2750;49.050;9.250;2022-12-31T00:39:39;98525.19;;;15.48;97.10
5455;BME280;2750;49.050;9.250;2022-12-31T00:44:42;98514.19;;;15.43;97.02
5455;BME280;2750;49.050;9.250;2022-12-31T00:49:43;98513.81;;;15.73;95.64
5455;BME280;2750;49.050;9.250;2022-12-31T00:54:45;98523.50;;;15.47;96.13
5455;BME280;2750;49.050;9.250;2022-12-31T00:59:47;98533.28;;;15.82;95.22
5455;BME280;2750;49.050;9.250;2022-12-31T01:04:49;98545.97;;;15.99;93.82
5455;BME280;2750;49.050;9.250;2022-12-31T01:09:51;98547.94;;;15.71;94.70
5455;BME280;2750;49.050;9.250;2022-12-31T01:14:54;98545.84;;;15.76;94.07
5455;BME280;2750;49.050;9.250;2022-12-31T01:19:56;98547.88;;;15.97;93.17
5455;BME280;2750;49.050;9.250;2022-12-31T01:24:57;98559.56;;;16.04;91.93
5455;BME280;2750;49.050;9.250;2022-12-31T01:30:00;98575.59;;;15.99;92.91
5455;BME280;2750;49.050;9.250;2022-12-31T01:35:01;98581.25;;;16.41;91.15
5455;BME280;2750;49.050;9.250;2022-12-31T01:40:04;98593.09;;;16.46;91.33
5455;BME280;2750;49.050;9.250;2022-12-31T01:45:11;98594.88;;;16.69;89.77
5455;BME280;2750;49.050;9.250;2022-12-31T01:50:15;98596.88;;;16.42;90.97
5455;BME280;2750;49.050;9.250;2022-12-31T01:55:20;98595.81;;;15.97;92.33
5455;BME280;2750;49.050;9.250;2022-12-31T02:00:25;98597.53;;;15.86;92.73
5455;BME280;2750;49.050;9.250;2022-12-31T02:05:31;98598.38;;;15.73;92.92
5455;BME280;2750;49.050;9.250;2022-12-31T02:10:35;98601.34;;;15.56;93.48
5455;BME280;2750;49.050;9.250;2022-12-31T02:15:48;98610.56;;;15.49;93.56
5455;BME280;2750;49.050;9.250;2022-12-31T02:21:19;98608.47;;;15.29;94.07
5455;BME280;2750;49.050;9.250;2022-12-31T02:26:52;98599.56;;;15.19;94.99
5455;BME280;2750;49.050;9.250;2022-12-31T02:31:57;98603.63;;;15.23;94.27
5455;BME280;2750;49.050;9.250;2022-12-31T02:37:03;98599.78;;;14.91;95.50
5455;BME280;2750;49.050;9.250;2022-12-31T02:42:06;98612.59;;;15.06;94.64
5455;BME280;2750;49.050;9.250;2022-12-31T02:53:11;98594.34;;;15.44;91.85
5455;BME280;2750;49.050;9.250;2022-12-31T02:58:20;98592.13;;;15.25;92.06
5455;BME280;2750;49.050;9.250;2022-12-31T03:03:46;98598.84;;;15.17;92.43
5455;BME280;2750;49.050;9.250;2022-12-31T03:08:51;98602.78;;;14.97;93.32
5455;BME280;2750;49.050;9.250;2022-12-31T03:14:21;98588.91;;;15.09;93.04
5455;BME280;2750;49.050;9.250;2022-12-31T03:19:23;98594.03;;;15.23;92.44
5455;BME280;2750;49.050;9.250;2022-12-31T03:24:43;98592.97;;;15.26;91.41
5455;BME280;2750;49.050;9.250;2022-12-31T03:30:03;98602.69;;;15.24;91.71
5455;BME280;2750;49.050;9.250;2022-12-31T03:35:06;98608.47;;;15.54;91.09
5455;BME280;2750;49.050;9.250;2022-12-31T03:40:10;98606.69;;;15.67;89.57
5455;BME280;2750;49.050;9.250;2022-12-31T03:45:13;98607.41;;;15.69;89.65
5455;BME280;2750;49.050;9.250;2022-12-31T03:50:16;98621.94;;;15.61;90.00
5455;BME280;2750;49.050;9.250;2022-12-31T03:55:19;98617.00;;;15.82;88.91
5455;BME280;2750;49.050;9.250;2022-12-31T04:00:21;98606.56;;;15.69;89.12
5455;BME280;2750;49.050;9.250;2022-12-31T04:05:23;98615.97;;;15.71;89.60
5455;BME280;2750;49.050;9.250;2022-12-31T04:10:26;98620.13;;;15.87;89.13
5455;BME280;2750;49.050;9.250;2022-12-31T04:15:27;98607.53;;;15.92;88.75
5455;BME280;2750;49.050;9.250;2022-12-31T04:20:29;98618.81;;;16.05;88.89
5455;BME280;2750;49.050;9.250;2022-12-31T04:25:32;98616.28;;;16.16;88.47
5455;BME280;2750;49.050;9.250;2022-12-31T04:30:33;98625.19;;;16.37;88.05
5455;BME280;2750;49.050;9.250;2022-12-31T04:35:34;98630.22;;;16.40;87.67
5455;BME280;2750;49.050;9.250;2022-12-31T04:40:37;98638.00;;;16.29;88.56
5455;BME280;2750;49.050;9.250;2022-12-31T04:45:59;98646.06;;;16.62;87.25
5455;BME280;2750;49.050;9.250;2022-12-31T04:51:01;98642.63;;;16.49;88.19
5455;BME280;2750;49.050;9.250;2022-12-31T04:56:06;98651.78;;;16.44;88.04
5455;BME280;2750;49.050;9.250;2022-12-31T05:01:08;98652.63;;;16.44;89.02
5455;BME280;2750;49.050;9.250;2022-12-31T05:06:12;98651.91;;;16.30;89.52
5455;BME280;2750;49.050;9.250;2022-12-31T05:11:16;98662.63;;;16.63;88.31
5455;BME280;2750;49.050;9.250;2022-12-31T05:16:17;98661.72;;;16.75;87.96
5455;BME280;2750;49.050;9.250;2022-12-31T05:21:20;98659.78;;;16.53;88.31
5455;BME280;2750;49.050;9.250;2022-12-31T05:26:23;98663.09;;;16.44;88.98
5455;BME280;2750;49.050;9.250;2022-12-31T05:31:24;98670.78;;;16.71;88.02
5455;BME280;2750;49.050;9.250;2022-12-31T05:36:26;98654.47;;;16.79;87.55
5455;BME280;2750;49.050;9.250;2022-12-31T05:41:29;98654.69;;;16.76;88.01
5455;BME280;2750;49.050;9.250;2022-12-31T05:46:30;98665.09;;;16.88;87.50
5455;BME280;2750;49.050;9.250;2022-12-31T05:51:32;98667.91;;;16.98;86.88
5455;BME280;2750;49.050;9.250;2022-12-31T05:56:35;98686.28;;;17.09;86.89
5455;BME280;2750;49.050;9.250;2022-12-31T06:01:37;98669.28;;;16.91;87.66
5455;BME280;2750;49.050;9.250;2022-12-31T06:06:38;98691.53;;;17.09;87.09
5455;BME280;2750;49.050;9.250;2022-12-31T06:11:42;98696.75;;;16.98;87.56
5455;BME280;2750;49.050;9.250;2022-12-31T06:16:43;98709.38;;;17.04;86.99
5455;BME280;2750;49.050;9.250;2022-12-31T06:21:45;98688.94;;;17.20;86.93
5455;BME280;2750;49.050;9.250;2022-12-31T06:26:48;98712.56;;;16.96;87.67
5455;BME280;2750;49.050;9.250;2022-12-31T06:31:49;98728.16;;;17.21;86.41
5455;BME280;2750;49.050;9.250;2022-12-31T06:36:51;98722.16;;;17.43;85.85
5455;BME280;2750;49.050;9.250;2022-12-31T06:41:54;98731.91;;;17.41;85.87
5455;BME280;2750;49.050;9.250;2022-12-31T06:46:55;98721.72;;;17.26;85.89
5455;BME280;2750;49.050;9.250;2022-12-31T06:51:57;98726.69;;;17.17;85.99
5455;BME280;2750;49.050;9.250;2022-12-31T06:57:00;98735.94;;;17.34;85.69
5455;BME280;2750;49.050;9.250;2022-12-31T07:02:10;98739.44;;;17.46;84.97
5455;BME280;2750;49.050;9.250;2022-12-31T07:07:16;98743.81;;;17.34;84.58
5455;BME280;2750;49.050;9.250;2022-12-31T07:12:35;98745.28;;;17.14;85.59
5455;BME280;2750;49.050;9.250;2022-12-31T07:17:45;98747.03;;;17.61;84.01
5455;BME280;2750;49.050;9.250;2022-12-31T07:22:49;98746.94;;;17.39;84.62
5455;BME280;2750;49.050;9.250;2022-12-31T07:28:12;98750.22;;;17.30;84.95
5455;BME280;2750;49.050;9.250;2022-12-31T07:33:35;98756.72;;;17.48;84.09
5455;BME280;2750;49.050;9.250;2022-12-31T07:38:48;98752.28;;;17.73;83.43
5455;BME280;2750;49.050;9.250;2022-12-31T07:43:59;98733.59;;;17.53;83.57
5455;BME280;2750;49.050;9.250;2022-12-31T07:49:03;98762.19;;;17.69;83.56
5455;BME280;2750;49.050;9.250;2022-12-31T07:54:06;98769.38;;;17.43;83.87
5455;BME280;2750;49.050;9.250;2022-12-31T07:59:16;98769.00;;;17.48;84.02
5455;BME280;2750;49.050;9.250;2022-12-31T08:04:26;98781.63;;;17.66;83.74
5455;BME280;2750;49.050;9.250;2022-12-31T08:09:38;98794.19;;;17.50;84.37
5455;BME280;2750;49.050;9.250;2022-12-31T08:14:45;98804.19;;;17.45;84.23
5455;BME280;2750;49.050;9.250;2022-12-31T08:19:48;98797.31;;;17.55;83.91
5455;BME280;2750;49.050;9.250;2022-12-31T08:24:57;98802.47;;;17.57;84.03
5455;BME280;2750;49.050;9.250;2022-12-31T08:30:08;98811.84;;;17.83;83.13
5455;BME280;2750;49.050;9.250;2022-12-31T08:35:18;98806.00;;;17.91;83.21
5455;BME280;2750;49.050;9.250;2022-12-31T08:40:27;98810.28;;;17.81;82.85
5455;BME280;2750;49.050;9.250;2022-12-31T08:45:34;98822.25;;;17.96;82.27
5455;BME280;2750;49.050;9.250;2022-12-31T08:50:38;98832.03;;;17.94;82.63
5455;BME280;2750;49.050;9.250;2022-12-31T08:55:40;98839.13;;;18.04;81.52
5455;BME280;2750;49.050;9.250;2022-12-31T09:00:45;98847.13;;;18.36;81.30
5455;BME280;2750;49.050;9.250;2022-12-31T09:05:54;98837.00;;;18.32;81.14
5455;BME280;2750;49.050;9.250;2022-12-31T09:11:04;98837.94;;;18.20;80.93
5455;BME280;2750;49.050;9.250;2022-12-31T09:16:15;98840.69;;;18.40;80.76
5455;BME280;2750;49.050;9.250;2022-12-31T09:21:18;98842.63;;;18.72;79.63
5455;BME280;2750;49.050;9.250;2022-12-31T09:26:34;98843.59;;;18.82;79.08
5455;BME280;2750;49.050;9.250;2022-12-31T09:31:45;98830.88;;;18.98;78.51
5455;BME280;2750;49.050;9.250;2022-12-31T09:36:51;98842.09;;;19.11;77.90
5455;BME280;2750;49.050;9.250;2022-12-31T09:53:35;98839.22;;;19.14;78.24
5455;BME280;2750;49.050;9.250;2022-12-31T09:58:45;98847.38;;;19.11;77.82
5455;BME280;2750;49.050;9.250;2022-12-31T10:04:04;98841.78;;;19.04;77.49
5455;BME280;2750;49.050;9.250;2022-12-31T10:09:19;98848.53;;;19.18;77.07
5455;BME280;2750;49.050;9.250;2022-12-31T10:14:33;98846.19;;;19.36;76.55
5455;BME280;2750;49.050;9.250;2022-12-31T10:19:54;98837.94;;;19.08;77.23
5455;BME280;2750;49.050;9.250;2022-12-31T10:25:22;98834.13;;;19.33;76.11
5455;BME280;2750;49.050;9.250;2022-12-31T10:30:32;98841.75;;;19.47;75.80
5455;BME280;2750;49.050;9.250;2022-12-31T10:35:39;98841.13;;;19.55;75.41
5455;BME280;2750;49.050;9.250;2022-12-31T10:51:54;98825.22;;;20.19;73.09
5455;BME280;2750;49.050;9.250;2022-12-31T11:08:27;98818.56;;;19.94;73.27
5455;BME280;2750;49.050;9.250;2022-12-31T11:13:56;98826.72;;;20.12;73.03
5455;BME280;2750;49.050;9.250;2022-12-31T11:19:14;98806.22;;;20.15;72.81
5455;BME280;2750;49.050;9.250;2022-12-31T11:24:28;98796.91;;;20.11;72.70
5455;BME280;2750;49.050;9.250;2022-12-31T11:29:51;98804.31;;;20.27;71.98
5455;BME280;2750;49.050;9.250;2022-12-31T11:35:32;98801.91;;;20.35;71.59
5455;BME280;2750;49.050;9.250;2022-12-31T11:40:50;98811.88;;;20.71;70.75
5455;BME280;2750;49.050;9.250;2022-12-31T11:46:17;98809.28;;;20.90;70.84
5455;BME280;2750;49.050;9.250;2022-12-31T11:51:37;98809.06;;;21.03;70.18
5455;BME280;2750;49.050;9.250;2022-12-31T11:56:50;98804.44;;;21.05;69.08
5455;BME280;2750;49.050;9.250;2022-12-31T12:01:56;98802.53;;;21.07;69.61
5455;BME280;2750;49.050;9.250;2022-12-31T12:07:00;98799.94;;;21.45;68.84
5455;BME280;2750;49.050;9.250;2022-12-31T12:12:04;98784.22;;;21.15;68.22
5455;BME280;2750;49.050;9.250;2022-12-31T12:17:07;98791.88;;;21.18;68.48
5455;BME280;2750;49.050;9.250;2022-12-31T12:22:10;98794.50;;;21.66;68.00
5455;BME280;2750;49.050;9.250;2022-12-31T12:27:21;98786.59;;;21.37;68.54
5455;BME280;2750;49.050;9.250;2022-12-31T12:32:25;98781.59;;;21.54;67.22
5455;BME280;2750;49.050;9.250;2022-12-31T12:37:29;98779.91;;;21.72;66.71
5455;BME280;2750;49.050;9.250;2022-12-31T12:42:34;98780.69;;;22.01;66.18
5455;BME280;2750;49.050;9.250;2022-12-31T12:47:35;98773.47;;;21.93;66.33
5455;BME280;2750;49.050;9.250;2022-12-31T12:52:55;98766.38;;;21.94;66.78
5455;BME280;2750;49.050;9.250;2022-12-31T12:58:07;98752.34;;;21.84;67.33
5455;BME280;2750;49.050;9.250;2022-12-31T13:03:52;98764.28;;;21.98;66.75
5455;BME280;2750;49.050;9.250;2022-12-31T13:09:06;98751.78;;;21.80;67.15
5455;BME280;2750;49.050;9.250;2022-12-31T13:14:20;98763.34;;;21.70;66.77
5455;BME280;2750;49.050;9.250;2022-12-31T13:19:32;98767.38;;;21.55;66.82
5455;BME280;2750;49.050;9.250;2022-12-31T13:24:45;98755.81;;;21.75;66.67
5455;BME280;2750;49.050;9.250;2022-12-31T13:29:49;98743.00;;;21.89;66.37
5455;BME280;2750;49.050;9.250;2022-12-31T13:34:56;98738.53;;;22.36;65.75
5455;BME280;2750;49.050;9.250;2022-12-31T13:40:02;98743.41;;;22.41;65.21
5455;BME280;2750;49.050;9.250;2022-12-31T13:45:09;98729.06;;;22.07;66.13
5455;BME280;2750;49.050;9.250;2022-12-31T13:50:16;98731.56;;;22.08;65.53
5455;BME280;2750;49.050;9.250;2022-12-31T13:55:22;98727.91;;;22.19;65.79
5455;BME280;2750;49.050;9.250;2022-12-31T14:00:31;98726.84;;;22.02;66.30
5455;BME280;2750;49.050;9.250;2022-12-31T14:05:39;98719.59;;;22.04;66.50
5455;BME280;2750;49.050;9.250;2022-12-31T14:10:51;98724.72;;;21.59;67.08
5455;BME280;2750;49.050;9.250;2022-12-31T14:16:05;98740.44;;;21.32;67.74
5455;BME280;2750;49.050;9.250;2022-12-31T14:21:10;98733.50;;;21.21;68.08
5455;BME280;2750;49.050;9.250;2022-12-31T14:26:18;98730.06;;;21.11;68.18
5455;BME280;2750;49.050;9.250;2022-12-31T14:36:55;98719.81;;;20.59;69.06
5455;BME280;2750;49.050;9.250;2022-12-31T14:42:08;98727.16;;;20.45;69.82
5455;BME280;2750;49.050;9.250;2022-12-31T14:47:24;98728.22;;;20.33;69.98
5455;BME280;2750;49.050;9.250;2022-12-31T14:52:31;98733.09;;;20.17;69.97
5455;BME280;2750;49.050;9.250;2022-12-31T14:57:35;98739.44;;;20.05;69.44
5455;BME280;2750;49.050;9.250;2022-12-31T15:02:48;98744.56;;;19.76;69.46
5455;BME280;2750;49.050;9.250;2022-12-31T15:08:05;98752.19;;;20.00;69.67
5455;BME280;2750;49.050;9.250;2022-12-31T15:13:16;98749.88;;;19.86;69.36
5455;BME280;2750;49.050;9.250;2022-12-31T15:18:40;98752.78;;;19.83;69.77
5455;BME280;2750;49.050;9.250;2022-12-31T15:23:46;98754.34;;;19.85;69.84
5455;BME280;2750;49.050;9.250;2022-12-31T15:29:00;98750.59;;;19.67;70.47
5455;BME280;2750;49.050;9.250;2022-12-31T15:34:05;98757.66;;;19.67;70.01
5455;BME280;2750;49.050;9.250;2022-12-31T15:39:26;98748.81;;;19.47;70.17
5455;BME280;2750;49.050;9.250;2022-12-31T15:44:45;98758.53;;;19.35;71.04
5455;BME280;2750;49.050;9.250;2022-12-31T15:49:50;98764.75;;;19.34;70.97
5455;BME280;2750;49.050;9.250;2022-12-31T15:54:55;98765.25;;;19.28;70.74
5455;BME280;2750;49.050;9.250;2022-12-31T15:59:58;98773.13;;;19.39;70.31
5455;BME280;2750;49.050;9.250;2022-12-31T16:05:02;98783.63;;;19.07;71.73
5455;BME280;2750;49.050;9.250;2022-12-31T16:10:05;98781.16;;;18.95;71.70
5455;BME280;2750;49.050;9.250;2022-12-31T16:15:16;98776.97;;;19.03;71.47
5455;BME280;2750;49.050;9.250;2022-12-31T16:20:23;98788.09;;;18.96;71.99
5455;BME280;2750;49.050;9.250;2022-12-31T16:25:27;98784.63;;;18.95;72.11
5455;BME280;2750;49.050;9.250;2022-12-31T16:30:30;98787.47;;;19.03;72.33
5455;BME280;2750;49.050;9.250;2022-12-31T16:35:35;98785.94;;;19.01;72.12
5455;BME280;2750;49.050;9.250;2022-12-31T16:40:37;98796.47;;;18.90;72.45
5455;BME280;2750;49.050;9.250;2022-12-31T16:45:38;98796.94;;;18.95;72.24
5455;BME280;2750;49.050;9.250;2022-12-31T16:50:43;98796.84;;;18.85;72.79
5455;BME280;2750;49.050;9.250;2022-12-31T16:55:50;98783.81;;;18.84;72.78
5455;BME280;2750;49.050;9.250;2022-12-31T17:00:55;98795.31;;;18.49;74.05
5455;BME280;2750;49.050;9.250;2022-12-31T17:06:12;98790.19;;;18.70;73.42
5455;BME280;2750;49.050;9.250;2022-12-31T17:11:17;98806.44;;;18.64;73.65
5455;BME280;2750;49.050;9.250;2022-12-31T17:16:19;98797.25;;;18.58;74.11
5455;BME280;2750;49.050;9.250;2022-12-31T17:21:24;98794.38;;;18.28;74.71
5455;BME280;2750;49.050;9.250;2022-12-31T17:26:28;98797.34;;;18.35;74.05
5455;BME280;2750;49.050;9.250;2022-12-31T17:31:33;98798.88;;;18.48;74.24
5455;BME280;2750;49.050;9.250;2022-12-31T17:36:37;98805.09;;;18.25;74.83
5455;BME280;2750;49.050;9.250;2022-12-31T17:41:43;98799.72;;;18.38;74.53
5455;BME280;2750;49.050;9.250;2022-12-31T17:46:45;98812.88;;;18.27;75.08
5455;BME280;2750;49.050;9.250;2022-12-31T17:51:48;98798.91;;;18.15;75.67
5455;BME280;2750;49.050;9.250;2022-12-31T17:56:50;98810.09;;;17.95;76.50
5455;BME280;2750;49.050;9.250;2022-12-31T18:01:53;98816.91;;;17.97;76.33
5455;BME280;2750;49.050;9.250;2022-12-31T18:06:56;98827.78;;;18.04;76.08
5455;BME280;2750;49.050;9.250;2022-12-31T18:11:58;98820.13;;;17.90;76.67
5455;BME280;2750;49.050;9.250;2022-12-31T18:17:01;98822.47;;;17.82;76.98
5455;BME280;2750;49.050;9.250;2022-12-31T18:22:03;98820.03;;;17.67;77.21
5455;BME280;2750;49.050;9.250;2022-12-31T18:27:11;98821.72;;;17.68;77.33
5455;BME280;2750;49.050;9.250;2022-12-31T18:32:19;98827.44;;;17.62;77.42
5455;BME280;2750;49.050;9.250;2022-12-31T18:37:26;98831.88;;;17.73;77.52
5455;BME280;2750;49.050;9.250;2022-12-31T18:42:28;98833.91;;;17.70;77.28
5455;BME280;2750;49.050;9.250;2022-12-31T18:47:29;98834.56;;;17.60;77.18
5455;BME280;2750;49.050;9.250;2022-12-31T18:52:32;98837.13;;;17.49;77.51
5455;BME280;2750;49.050;9.250;2022-12-31T18:57:34;98841.88;;;17.44;77.54
5455;BME280;2750;49.050;9.250;2022-12-31T19:02:35;98850.91;;;17.40;77.98
5455;BME280;2750;49.050;9.250;2022-12-31T19:07:38;98851.19;;;17.48;77.85
5455;BME280;2750;49.050;9.250;2022-12-31T19:12:40;98849.72;;;17.44;76.83
5455;BME280;2750;49.050;9.250;2022-12-31T19:17:41;98860.47;;;17.41;77.75
5455;BME280;2750;49.050;9.250;2022-12-31T19:22:44;98864.16;;;17.39;77.42
5455;BME280;2750;49.050;9.250;2022-12-31T19:27:46;98865.31;;;17.35;77.36
5455;BME280;2750;49.050;9.250;2022-12-31T19:32:47;98871.84;;;17.29;77.85
5455;BME280;2750;49.050;9.250;2022-12-31T19:37:52;98870.63;;;17.22;77.75
5455;BME280;2750;49.050;9.250;2022-12-31T19:42:55;98874.31;;;17.19;77.66
5455;BME280;2750;49.050;9.250;2022-12-31T19:47:57;98876.41;;;17.14;78.13
5455;BME280;2750;49.050;9.250;2022-12-31T19:52:59;98866.47;;;17.07;78.62
5455;BME280;2750;49.050;9.250;2022-12-31T19:58:01;98869.84;;;17.09;78.16
5455;BME280;2750;49.050;9.250;2022-12-31T20:03:03;98868.22;;;17.19;78.03
5455;BME280;2750;49.050;9.250;2022-12-31T20:08:06;98868.84;;;17.23;78.11
5455;BME280;2750;49.050;9.250;2022-12-31T20:13:07;98878.72;;;17.43;76.94
5455;BME280;2750;49.050;9.250;2022-12-31T20:18:09;98879.22;;;17.24;77.53
5455;BME280;2750;49.050;9.250;2022-12-31T20:23:12;98870.19;;;17.28;77.31
5455;BME280;2750;49.050;9.250;2022-12-31T20:28:13;98879.00;;;17.27;77.29
5455;BME280;2750;49.050;9.250;2022-12-31T20:33:15;98872.88;;;17.39;77.16
5455;BME280;2750;49.050;9.250;2022-12-31T20:38:18;98873.25;;;17.46;76.40
5455;BME280;2750;49.050;9.250;2022-12-31T20:43:19;98869.06;;;17.43;76.44
5455;BME280;2750;49.050;9.250;2022-12-31T20:48:21;98873.91;;;17.37;76.35
5455;BME280;2750;49.050;9.250;2022-12-31T20:53:24;98879.75;;;17.40;76.08
5455;BME280;2750;49.050;9.250;2022-12-31T20:58:25;98884.91;;;17.18;77.18
5455;BME280;2750;49.050;9.250;2022-12-31T21:03:27;98874.81;;;17.25;76.63
5455;BME280;2750;49.050;9.250;2022-12-31T21:08:30;98875.22;;;17.31;76.59
5455;BME280;2750;49.050;9.250;2022-12-31T21:13:31;98881.34;;;17.19;76.74
5455;BME280;2750;49.050;9.250;2022-12-31T21:18:33;98884.78;;;17.19;76.51
5455;BME280;2750;49.050;9.250;2022-12-31T21:23:36;98883.94;;;16.83;77.90
5455;BME280;2750;49.050;9.250;2022-12-31T21:28:37;98892.31;;;16.88;77.62
5455;BME280;2750;49.050;9.250;2022-12-31T21:33:42;98890.22;;;16.93;77.36
5455;BME280;2750;49.050;9.250;2022-12-31T21:38:46;98889.06;;;16.84;77.38
5455;BME280;2750;49.050;9.250;2022-12-31T21:43:47;98887.31;;;16.72;77.76
5455;BME280;2750;49.050;9.250;2022-12-31T21:48:52;98899.06;;;16.66;78.23
5455;BME280;2750;49.050;9.250;2022-12-31T21:53:55;98892.34;;;16.75;77.83
5455;BME280;2750;49.050;9.250;2022-12-31T21:58:57;98893.00;;;16.79;77.84
5455;BME280;2750;49.050;9.250;2022-12-31T22:04:16;98910.59;;;16.77;77.28
5455;BME280;2750;49.050;9.250;2022-12-31T22:09:19;98921.28;;;16.61;78.30
5455;BME280;2750;49.050;9.250;2022-12-31T22:14:20;98922.44;;;16.69;78.60
5455;BME280;2750;49.050;9.250;2022-12-31T22:19:22;98923.38;;;16.68;78.06
5455;BME280;2750;49.050;9.250;2022-12-31T22:24:25;98940.78;;;16.82;77.01
5455;BME280;2750;49.050;9.250;2022-12-31T22:29:26;98933.41;;;16.87;77.00
5455;BME280;2750;49.050;9.250;2022-12-31T22:34:28;98943.06;;;16.87;76.95
5455;BME280;2750;49.050;9.250;2022-12-31T22:39:31;98950.22;;;16.72;77.36
5455;BME280;2750;49.050;9.250;2022-12-31T22:44:32;98954.78;;;16.56;78.14
5455;BME280;2750;49.050;9.250;2022-12-31T22:49:34;98958.28;;;16.56;78.43
5455;BME280;2750;49.050;9.250;2022-12-31T22:54:36;98964.19;;;16.33;79.21
5455;BME280;2750;49.050;9.250;2022-12-31T22:59:38;98963.91;;;16.38;78.85
5455;BME280;2750;49.050;9.250;2022-12-31T23:04:39;98963.69;;;16.28;79.23
5455;BME280;2750;49.050;9.250;2022-12-31T23:09:42;98962.19;;;16.11;79.16
5455;BME280;2750;49.050;9.250;2022-12-31T23:15:01;98967.00;;;16.17;79.47
5455;BME280;2750;49.050;9.250;2022-12-31T23:20:22;98971.59;;;16.14;79.35
5455;BME280;2750;49.050;9.250;2022-12-31T23:25:45;98971.41;;;16.17;78.70
5455;BME280;2750;49.050;9.250;2022-12-31T23:30:47;98972.16;;;16.19;78.85
5455;BME280;2750;49.050;9.250;2022-12-31T23:35:50;98978.84;;;16.23;78.24
5455;BME280;2750;49.050;9.250;2022-12-31T23:41:11;98974.78;;;16.32;79.34
5455;BME280;2750;49.050;9.250;2022-12-31T23:46:13;98978.53;;;16.15;79.62
5455;BME280;2750;49.050;9.250;2022-12-31T23:51:15;98979.88;;;16.08;79.33
5455;BME280;2750;49.050;9.250;2022-12-31T23:56:18;98979.66;;;15.98;79.35
